CheckWX is a tool to help pilots better visualize weather data.  It is not intended as a substitute for an official pre-flight weather briefing.

01:39:55 UTC

CYZT METAR
Port Hardy Airport
Port Hardy, Canada
Current

40 mins ago

CYZT 240100Z 14007KT 20SM BKN021 BKN055 05/02 A3002 RMK CU5SC2 OCNL -SHRA SLP168
Observed
Feb-24 @ 01:00 UTC
Wind
  • 140° at 7 KTS
Visibility
20 SM
Flight Rules
MVFR
Cloud Levels
  • Broken at 2,100' AGL
  • Broken at 5,500' AGL
Temperature
C / 41°F
Dewpoint
C / 36°F
Humidity
81%
Altimeter
30.02" Hg
Pressure
1016.8 hPa
Previous

1 hour ago

CYZT 240027Z 12010KT 20SM -SHRA BKN020 BKN055 05/03 A3002 RMK CU5SC2 SLP167
Observed
Feb-24 @ 00:27 UTC
Wind
  • 120° at 10 KTS
Visibility
20 SM
Flight Rules
MVFR
Conditions
Light Rain
Cloud Levels
  • Broken at 2,000' AGL
  • Broken at 5,500' AGL
Temperature
C / 41°F
Dewpoint
C / 37°F
Humidity
87%
Altimeter
30.02" Hg
Pressure
1016.7 hPa
Previous

2 hours ago

CYZT 240000Z 12012KT 20SM VCSH BKN019TCU BKN038 BKN055 05/02 A3001 RMK TCU5SC1SC1 SLP166
Observed
Feb-24 @ 00:00 UTC
Wind
  • 120° at 12 KTS
Visibility
20 SM
Flight Rules
MVFR
Cloud Levels
  • Broken at 1,900' AGL
  • Broken at 3,800' AGL
  • Broken at 5,500' AGL
Temperature
C / 41°F
Dewpoint
C / 36°F
Humidity
81%
Altimeter
30.01" Hg
Pressure
1016.6 hPa